KMDH/MDH METAR and TAF weather

Enter ICAO airport designator
Station Type Date Time Source
KMDH METAR 2021/05/11 14:52 UTC NOAA

KMDH 111452Z 03010KT 10SM CLR 16/07 A3024 RMK AO2 SLP240 T01560067 51009


Station Type Date Time Source
KMDH Decoded METAR 2021/05/11 14:52 UTC NOAA

SOUTHERN ILLINOIS AIRPORT, IL, United States (KMDH) 37-47N 089-15W 130M
May 11, 2021 - 10:52 AM EDT / 2021.05.11 1452 UTC
Wind: from the NNE (030 degrees) at 12 MPH (10 KT):0
Visibility: 10 mile(s):0
Sky conditions: clear
Temperature: 60.1 F (15.6 C)
Dew Point: 44.1 F (6.7 C)
Relative Humidity: 55%
Pressure (altimeter): 30.24 in. Hg (1024 hPa)
Pressure tendency: 0.03 inches (0.9 hPa) higher than three hours ago
ob: KMDH 111452Z 03010KT 10SM CLR 16/07 A3024 RMK AO2 SLP240 T01560067 51009
cycle: 15

Station Type Date Time Source
KMDH TAF UTC NOAA

Error!

Example: see airport list